Station CHCM2 - 8573927 - Chesapeake City, MD Image indicating link to RSS feed of recent meteorological observations for station CHCM2


Conditions at CHCM2 as of
(1:18 pm EDT)
1718 GMT on 09/01/2026:
     

Click on the graph icon in the table below to see a time series plot of the last five days of that observation.

5-day plot - Wind Direction Wind Direction (WDIR): W ( 270 deg true )
5-day plot - Wind Speed Wind Speed (WSPD): 4.1 kts
5-day plot - Wind Gust Wind Gust (GST): 5.1 kts
5-day plot - Atmospheric Pressure Atmospheric Pressure (PRES):29.98 in
5-day plot - Water Temperature Water Temperature (WTMP): 81.1 °F
5-day plot - Wind Speed at 10 Meters Wind Speed at 10 meters (WSPD10M): 3.9 kts
5-day plot - Wind Speed at 20 Meters Wind Speed at 20 meters (WSPD20M): 3.9 kts
5-day plot -  Wind Speed, Wind Gust and Atmospheric Pressure Combined plot of Wind Speed, Gust, and Air Pressure
NOS Water Level Observation Network Water Level
Previous observations
TIME
(EDT)
5-day plot - Wind Direction
WDIR
 
5-day plot - Wind Speed
WSPD
kts
5-day plot - Wind Gust
GST
kts
5-day plot - Wave Height
WVHT
ft
5-day plot - Dominant Wave Period
DPD
sec
5-day plot - Average Wave Period
APD
sec
5-day plot - Mean Wave Direction
MWD
 
5-day plot - Atmospheric Pressure
PRES
in
5-day plot - Pressure Tendency
PTDY
in
5-day plot - Air Temperature
ATMP
°F
5-day plot - Water Temperature
WTMP
°F
5-day plot - Dew Point
DEWP
°F
5-day plot - Salinity
SAL
psu
5-day plot - Visibility
VIS
nmi
5-day plot - Tide (above MLLW)
TIDE
ft
2026-09-01 01:12 pmWSW 1.9 5.1----29.98-- 81.1----
2026-09-01 01:06 pm SW 4.1 6.0----29.98-- 81.1----
2026-09-01 01:00 pm SW 2.9 5.1----29.98-0.02 84.0 81.0----
2026-09-01 12:54 pmWSW 4.1 5.1----29.99- 84.0 81.0----
2026-09-01 12:48 pm W 2.9 5.1----29.99-- 81.0----
2026-09-01 12:42 pmWSW 4.1 6.0----29.99-- 81.0----
2026-09-01 12:36 pmWSW 2.9 5.1----29.99-- 81.0----
2026-09-01 12:30 pm W 1.9 4.1----29.99- 84.4 81.0----
2026-09-01 12:24 pm W 2.9 5.1----30.00- 84.2 81.0----
2026-09-01 12:18 pm W 2.9 5.1----30.00-- 81.0----
2026-09-01 12:12 pmWNW 5.1 7.0----30.00-- 81.0----
2026-09-01 12:06 pm W 4.1 7.0----30.00-- 81.0----
2026-09-01 12:00 pm W 5.1 8.0----30.00-0.01 84.7 81.0----
2026-09-01 11:54 am W 6.0 8.9----30.00- 85.1 81.0----
2026-09-01 11:48 am W 6.0 11.1----30.00- 85.5 81.0----
2026-09-01 11:42 amWNW 8.0 9.9----30.00- 85.5 81.1----
2026-09-01 11:36 amWNW 6.0 8.0----30.00- 85.3 81.0----
2026-09-01 11:30 amWSW 2.9 6.0----30.00- 84.6 81.0----
2026-09-01 11:24 am NW 5.1 7.0----30.00- 84.6 81.0----
2026-09-01 11:18 amWNW 5.1 7.0----30.00-- 81.0----
2026-09-01 11:12 amWNW 2.9 5.1----30.00-- 81.0----
2026-09-01 11:06 amWSW 5.1 8.0----30.01-- 81.0----
2026-09-01 11:00 am W 1.9 7.0----30.01-0.01 83.8 81.0----
2026-09-01 10:54 am W 4.1 8.0----30.01- 82.9 81.0----
2026-09-01 10:48 amWSW 7.0 9.9----30.01-- 81.0----
2026-09-01 10:42 amWSW 5.1 6.0----30.01-- 81.0----
2026-09-01 10:36 am W 1.9 7.0----30.01-- 81.0----
2026-09-01 10:30 am W 4.1 7.0----30.01- 81.3 81.0----
2026-09-01 10:24 amWSW 4.1 7.0----30.01- 80.8 80.8----
2026-09-01 10:18 am W 2.9 5.1----30.01-- 80.8----
2026-09-01 10:12 am W 4.1 6.0----30.01-- 81.0----
2026-09-01 10:06 am W 4.1 7.0----30.01-- 81.0----
2026-09-01 10:00 am SW 2.9 5.1----30.01-0.01 80.6 80.8----
2026-09-01 09:54 amWSW 4.1 6.0----30.01- 80.6 80.8----
2026-09-01 09:48 amWSW 5.1 6.0----30.00- 80.6 80.8----
2026-09-01 09:42 amWSW 5.1 7.0----30.00- 81.0 80.8----
2026-09-01 09:36 am SW 4.1 6.0----30.00- 81.1 80.8----
2026-09-01 09:30 am W 1.9 7.0----30.01- 81.3 80.8----
2026-09-01 09:24 am W 6.0 8.0----30.01- 81.1 80.8----
2026-09-01 09:18 amWSW 1.9 5.1----30.01-- 80.8----
2026-09-01 09:12 amWSW 4.1 8.0----30.01-- 80.8----
2026-09-01 09:06 amWSW 4.1 5.1----30.01-- 80.8----
2026-09-01 09:00 am SW 1.9 6.0----30.01+0.00 79.7 80.6----
2026-09-01 08:54 am SW 4.1 6.0----30.02- 79.2 80.8----
2026-09-01 08:48 amSSW 2.9 5.1----30.01-- 80.6----
2026-09-01 08:42 amWSW 2.9 5.1----30.02-- 80.6----
2026-09-01 08:36 am SW 2.9 4.1----30.02-- 80.6----
2026-09-01 08:30 am SW 1.9 2.9----30.02- 77.2 80.6----
2026-09-01 08:24 am- 0.0 1.9----30.02- 77.2 80.6----
2026-09-01 08:18 amWSW 1.9 2.9----30.02-- 80.6----
2026-09-01 08:12 am- 0.0 2.9----30.02-- 80.4----
2026-09-01 08:06 am SW 1.9 2.9----30.02-- 80.2----
2026-09-01 08:00 am SW 1.0 1.9----30.02+0.00 75.4 80.1----
2026-09-01 07:54 am SW 1.0 1.9----30.02- 75.0 79.9----
2026-09-01 07:48 amSSW 1.0 2.9----30.01- 74.8 79.9----
2026-09-01 07:42 amSSW 1.9 2.9----30.01- 74.7 79.9----
2026-09-01 07:36 am- 0.0 1.0----30.02- 74.3 80.1----
2026-09-01 07:30 am- 0.0 1.0----30.02- 74.1 80.1----
2026-09-01 07:24 am- 0.0 1.0----30.02- 73.6 80.1----
2026-09-01 07:18 am- 0.0 1.0----30.02-- 80.1----
2026-09-01 07:12 am W 1.9 2.9----30.02-- 80.1----
2026-09-01 07:06 am W 1.0 1.9----30.02-- 80.2----
2026-09-01 07:00 am- 0.0 1.0----30.02+0.00 72.9 80.2----
2026-09-01 06:54 amSSW 1.0 1.9----30.02- 72.7 80.2----
2026-09-01 06:48 amSSW 1.0 1.9----30.02- 72.5 80.2----
2026-09-01 06:42 am SW 1.9 1.9----30.02- 72.5 80.2----
2026-09-01 06:36 am W 1.0 2.9----30.02- 72.7 80.2----
2026-09-01 06:30 am W 1.9 2.9----30.01- 72.5 80.2----
2026-09-01 06:24 am W 1.0 1.9----30.01- 72.3 80.2----
2026-09-01 06:18 am- 0.0 1.9----30.01-- 80.2----
2026-09-01 06:12 am SW 1.0 1.9----30.01-- 80.4----
2026-09-01 06:06 amSSW 1.9 2.9----30.01-- 80.4----
2026-09-01 06:00 amWSW 1.9 2.9----30.01- 72.1 80.4----
2026-09-01 05:54 am W 1.9 2.9----30.01- 72.1 80.4----
2026-09-01 05:48 am SW 1.9 1.9----30.01- 72.1 80.4----
2026-09-01 05:42 am S 1.9 1.9----30.01- 72.3 80.4----
2026-09-01 05:36 am S 1.0 1.9----30.01- 72.5 80.4----
2026-09-01 05:30 am S 1.0 1.9----30.02- 72.3 80.6----
2026-09-01 05:24 am SW 1.0 1.0----30.02- 72.1 80.6----
2026-09-01 05:18 am- 0.0 1.0----30.02-- 80.6----
2026-09-01 05:12 amWSW 1.0 1.9----30.02-- 80.6----
2026-09-01 05:06 amWSW 1.0 1.9----30.02-- 80.6----
2026-09-01 05:00 am- 0.0 1.0----30.02-0.02 72.1 80.6----
2026-09-01 04:54 am S 1.0 1.0----30.02- 72.1 80.6----
2026-09-01 04:48 am- 0.0 1.0----30.02-- 80.6----
2026-09-01 04:42 am- 0.0 1.9----30.02-- 80.6----
2026-09-01 04:36 amWSW 1.0 1.9----30.02-- 80.6----
2026-09-01 04:30 am SW 1.0 1.9----30.02- 71.8 80.8----
2026-09-01 04:24 am SW 1.0 1.9----30.02- 71.6 80.8----
2026-09-01 04:18 am SW 1.0 1.9----30.02-- 80.8----
2026-09-01 04:12 amSSW 1.0 1.9----30.02-- 80.8----
2026-09-01 04:06 amWSW 1.0 1.9----30.02-- 80.8----
2026-09-01 04:00 am S 1.9 1.9----30.02-0.04 71.6 80.8----
2026-09-01 03:54 amSSW 1.0 1.9----30.02- 71.6 80.8----
2026-09-01 03:48 amSSW 1.0 1.9----30.02- 71.6 80.8----
2026-09-01 03:42 am SW 1.0 1.9----30.02- 71.8 80.8----
2026-09-01 03:36 am- 0.0 1.0----30.02- 71.6 80.8----
2026-09-01 03:30 amESE 1.0 1.9----30.03- 71.6 81.0----
2026-09-01 03:24 amESE 1.0 1.9----30.02- 71.8 81.0----
2026-09-01 03:18 amSSE 1.0 1.9----30.03- 72.0 81.0----
2026-09-01 03:12 amSSE 1.0 1.9----30.03- 72.1 81.0----
2026-09-01 03:06 am- 0.0 1.0----30.03- 72.1 81.0----
2026-09-01 03:00 am- 0.0 1.0------ 72.0 81.0----
2026-09-01 02:54 amSSW 1.0 1.9------ 72.0 81.0----
2026-09-01 02:48 am SW 1.0 1.9----30.03- 72.0 81.0----
2026-09-01 02:42 am SW 1.0 1.9----30.03- 72.3 81.0----
2026-09-01 02:36 amSSW 1.0 1.9----30.04- 72.3 81.0----
2026-09-01 02:30 am- 0.0 1.0----30.04-- 81.0----
2026-09-01 02:24 am- 0.0 1.0----30.04-- 81.0----
2026-09-01 02:18 am- 0.0 1.0----30.04-- 81.0----
2026-09-01 02:12 am- 0.0 1.0----30.04-- 81.0----
2026-09-01 02:06 am- 0.0 1.0----30.04-- 81.0----
2026-09-01 02:00 am- 0.0 1.9----30.04-0.03 72.1 81.0----
2026-09-01 01:54 amSSE 1.0 1.9----30.04- 72.1 81.0----
2026-09-01 01:48 am S 1.9 1.9----30.04- 72.3 81.0----
2026-09-01 01:42 am- 0.0 1.0----30.05- 72.3 81.0----
2026-09-01 01:36 am- 0.0 1.9----30.05- 72.3 81.0----
2026-09-01 01:30 am- 0.0 1.9----30.05- 72.5 81.1----
2026-09-01 01:24 am SE 1.0 1.9----30.05- 72.5 81.1----
2026-09-01 01:18 am SE 1.0 1.9----30.06-- 81.1----
2026-09-01 01:12 am- 0.0 1.9----30.06-- 81.1----
2026-09-01 01:06 am S 1.9 1.9----30.06-- 81.1----
2026-09-01 01:00 am- 0.0 1.9----30.06-0.01 73.2 81.1----
2026-09-01 12:54 amNNW 1.9 2.9----30.06- 73.0 81.1----
2026-09-01 12:48 am N 1.0 1.0----30.06- 72.9 81.1----
2026-09-01 12:42 am- 0.0 1.9----30.06- 72.7 81.1----
2026-09-01 12:36 am- 0.0 1.9----30.06- 72.5 81.1----
2026-09-01 12:30 am S 1.9 1.9----30.06- 72.3 81.1----
2026-09-01 12:24 am- 0.0 1.0----30.06- 72.3 81.1----
2026-09-01 12:18 amSSE 1.0 1.9----30.06-- 81.1----
2026-09-01 12:12 amSSE 1.9 2.9----30.06-- 81.1----
2026-09-01 12:06 am SE 1.9 1.9----30.07-- 81.1----
2026-09-01 12:00 am- 0.0 1.0----30.07+0.00 72.7 81.1----
2026-08-31 11:54 pm- 0.0 2.9----30.07- 72.7 81.1----
2026-08-31 11:48 pmSSE 1.9 1.9----30.07-- 81.1----
2026-08-31 11:42 pm S 1.0 1.9----30.07-- 81.1----
2026-08-31 11:36 pmWSW 1.0 2.9----30.07-- 81.0----
2026-08-31 11:30 pm NW 1.9 1.9----30.07- 74.1 81.0----
2026-08-31 11:24 pm- 0.0 1.0----30.07- 73.9 81.0----
2026-08-31 11:18 pm- 0.0 1.0------- 81.0----
2026-08-31 11:12 pm- 0.0 1.0------- 81.0----
2026-08-31 11:06 pm- 0.0 1.0------- 81.0----
2026-08-31 11:00 pm- 0.0 1.0----30.07+0.02 74.5 81.0----
2026-08-31 10:54 pm- 0.0 1.0----30.07- 74.3 81.0----
2026-08-31 10:48 pm- 0.0 1.0----30.06- 74.3 81.0----
2026-08-31 10:42 pm- 0.0 1.9----30.06- 74.3 81.0----
2026-08-31 10:36 pm S 1.0 1.9----30.07- 74.3 81.0----
2026-08-31 10:30 pm- 0.0 1.0----30.07- 74.7 81.0----
2026-08-31 10:24 pm- 0.0 1.0----30.07- 74.5 81.0----
2026-08-31 10:18 pm- 0.0 1.0----30.07-- 81.0----
2026-08-31 10:12 pm- 0.0 1.0----30.07-- 81.0----
2026-08-31 10:06 pmSSE 1.0 1.9----30.07-- 81.0----
2026-08-31 10:00 pmSSE 1.0 1.9----30.07+0.00 75.2 81.0----
2026-08-31 09:54 pm S 1.0 1.9----30.07- 75.6 81.0----
2026-08-31 09:48 pmSSW 1.0 1.9----30.07- 75.6 81.0----
2026-08-31 09:42 pm S 1.0 2.9----30.07- 75.7 81.0----
2026-08-31 09:36 pm S 2.9 2.9----30.06- 75.7 81.0----
2026-08-31 09:30 pmSSE 1.9 1.9----30.07- 76.1 81.0----
2026-08-31 09:24 pm- 0.0 1.0----30.07- 76.3 81.0----
2026-08-31 09:18 pm S 1.0 2.9----30.07-- 81.0----
2026-08-31 09:12 pm S 1.9 2.9----30.06-- 81.0----
2026-08-31 09:06 pm S 1.0 1.9----30.06-- 81.0----
2026-08-31 09:00 pm- 0.0 2.9----30.07-0.01 76.6 81.0----
2026-08-31 08:54 pm S 1.0 1.9----30.06- 76.3 81.0----
2026-08-31 08:48 pm- 0.0 1.0----30.06-- 81.0----
2026-08-31 08:42 pm S 1.0 1.9----30.06-- 81.0----
2026-08-31 08:36 pmSSE 1.0 1.9----30.06-- 81.0----
2026-08-31 08:30 pm- 0.0 1.0----30.06- 76.6 81.0----
2026-08-31 08:24 pm- 0.0 1.0----30.06- 76.8 81.0----
2026-08-31 08:18 pm- 0.0 1.9----30.06-- 81.0----
2026-08-31 08:12 pmSSE 1.0 1.9----30.05-- 81.0----
2026-08-31 08:06 pm SE 1.0 2.9----30.05-- 81.0----
2026-08-31 08:00 pm SE 1.0 2.9----30.05-0.03 77.2 81.0----
2026-08-31 07:54 pm SE 2.9 2.9----30.05- 77.0 81.0----
2026-08-31 07:48 pmSSE 1.9 2.9----30.05-- 81.1----
2026-08-31 07:42 pm S 1.0 2.9----30.06-- 81.1----
2026-08-31 07:36 pm S 1.0 1.9----30.06-- 81.1----
2026-08-31 06:48 pm SE 2.9 5.1----30.07- 79.9 81.0----
2026-08-31 06:42 pm SE 4.1 5.1----30.07- 80.4 81.0----
2026-08-31 06:36 pm SE 2.9 4.1----30.08- 80.8 81.0----
2026-08-31 06:30 pm SE 1.9 4.1----30.08- 81.1 81.0----
2026-08-31 06:24 pmSSE 1.9 4.1----30.08- 81.3 81.0----
2026-08-31 06:18 pmSSE 1.9 2.9----30.08- 81.0 81.0----
2026-08-31 06:12 pm SE 1.0 2.9----30.08- 81.3 81.0----
2026-08-31 06:06 pmSSE 1.9 2.9----30.08- 81.1 81.0----
2026-08-31 06:00 pm- 0.0 2.9----30.08-0.02 81.7 81.0----
2026-08-31 05:54 pmSSE 1.9 4.1----30.08- 81.3 81.0----
2026-08-31 05:48 pm S 1.9 4.1----30.08- 81.5 81.0----
2026-08-31 05:42 pmSSE 2.9 4.1----30.07- 81.5 81.0----
2026-08-31 05:36 pmSSE 2.9 4.1----30.08- 81.9 81.0----
2026-08-31 05:30 pmSSE 1.9 5.1----30.08- 82.0 81.0----
2026-08-31 05:24 pm SE 4.1 6.0----30.08- 82.2 81.0----
2026-08-31 05:18 pm SE 2.9 6.0----30.08-- 81.0----
2026-08-31 05:12 pmSSE 1.9 4.1----30.08-- 81.0----
2026-08-31 05:06 pmESE 1.9 5.1----30.08-- 81.0----
2026-08-31 05:00 pm E 4.1 5.1----30.08-0.02 81.7 80.8----
2026-08-31 04:54 pm E 4.1 5.1----30.08- 81.5 80.8----
2026-08-31 04:48 pmESE 4.1 5.1----30.08- 81.9 80.8----
2026-08-31 04:42 pmENE 4.1 5.1----30.08- 81.7 80.8----
2026-08-31 04:36 pm E 4.1 5.1----30.08- 81.5 80.6----
2026-08-31 04:30 pm E 1.9 5.1----30.08- 82.0 80.6----
2026-08-31 04:24 pmENE 1.0 2.9----30.08- 82.2 80.6----
2026-08-31 04:18 pmENE 1.0 2.9----30.08-- 80.6----
2026-08-31 04:12 pmENE 1.9 4.1----30.09-- 80.6----
2026-08-31 04:06 pmENE 4.1 6.0----30.09-- 80.4----
2026-08-31 04:00 pm E 5.1 7.0----30.09-0.03 81.3 80.4----
2026-08-31 03:54 pm E 2.9 6.0----30.09- 81.3 80.2----
2026-08-31 03:48 pm E 5.1 6.0----30.09- 81.1 80.2----
2026-08-31 03:42 pm E 5.1 6.0----30.09- 81.1 80.4----
2026-08-31 03:36 pm E 2.9 5.1----30.09- 81.5 80.8----
2026-08-31 03:30 pm E 1.9 2.9----30.09- 81.9 80.6----
2026-08-31 03:24 pm- 0.0 1.0----30.09- 82.8 80.2----
2026-08-31 03:18 pm NW 1.0 1.0----30.09-- 80.2----
2026-08-31 03:12 pm E 1.9 2.9----30.10-- 80.8----
2026-08-31 03:06 pm E 2.9 6.0----30.10-- 81.0----
2026-08-31 03:00 pm E 4.1 5.1----30.10-0.02 81.1 81.0----
2026-08-31 02:54 pm E 2.9 5.1----30.10- 81.7 80.8----
2026-08-31 02:48 pm NE 1.9 2.9----30.10- 81.9 80.6----
2026-08-31 02:42 pm E 1.0 4.1----30.10- 81.5 80.8----
2026-08-31 02:36 pm E 2.9 4.1----30.10- 81.0 80.8----
2026-08-31 02:30 pmENE 2.9 4.1----30.10- 81.0 81.0----
2026-08-31 02:24 pmENE 1.9 2.9----30.10- 81.5 81.0----
2026-08-31 02:18 pm- 0.0 1.0----30.10-- 81.0----
2026-08-31 02:12 pm- 0.0 1.9----30.10-- 81.0----
2026-08-31 02:06 pmNNE 1.9 2.9----30.11-- 81.0----
2026-08-31 02:00 pmENE 1.9 2.9----30.11-0.02 80.8 81.0----
2026-08-31 01:54 pmENE 2.9 2.9----30.11- 80.6 80.8----